createdAt,value
2019-02-08T00:02:10.204Z,0.00
2019-02-08T00:07:13.602Z,0.10
2019-02-08T00:12:16.960Z,0.10
2019-02-08T00:17:20.353Z,0.10
2019-02-08T00:22:23.725Z,0.10
2019-02-08T00:27:27.103Z,0.10
2019-02-08T00:32:30.549Z,0.10
2019-02-08T00:37:33.959Z,0.10
2019-02-08T00:42:37.347Z,0.10
2019-02-08T00:47:40.731Z,0.10
2019-02-08T00:52:44.115Z,0.10
2019-02-08T00:57:47.834Z,0.10
2019-02-08T01:02:53.501Z,0.10
2019-02-08T01:07:57.227Z,0.10
2019-02-08T01:13:01.248Z,0.10
2019-02-08T01:18:05.175Z,0.10
2019-02-08T01:23:08.627Z,0.10
2019-02-08T01:28:12.018Z,0.10
2019-02-08T01:33:15.574Z,0.10
2019-02-08T01:38:18.942Z,0.20
2019-02-08T01:43:23.940Z,0.20
2019-02-08T01:48:27.334Z,0.20
2019-02-08T01:53:30.723Z,0.20
2019-02-08T01:58:34.111Z,0.20
2019-02-08T02:03:37.500Z,0.30
2019-02-08T02:08:40.875Z,0.30
2019-02-08T02:13:44.255Z,0.30
2019-02-08T02:18:47.635Z,0.30
2019-02-08T02:23:56.037Z,0.40
2019-02-08T02:28:56.111Z,0.40
2019-02-08T02:33:59.489Z,0.40
2019-02-08T02:39:03.039Z,0.50
2019-02-08T02:44:06.505Z,0.50
2019-02-08T02:49:09.947Z,0.50
2019-02-08T02:54:13.328Z,0.50
2019-02-08T02:59:16.775Z,0.50
2019-02-08T03:04:20.151Z,0.50
2019-02-08T03:09:23.541Z,0.50
2019-02-08T03:14:26.919Z,0.50
2019-02-08T03:19:30.299Z,0.50
2019-02-08T03:24:33.691Z,0.50
2019-02-08T03:29:37.082Z,0.50
2019-02-08T03:34:40.465Z,0.50
2019-02-08T03:39:43.859Z,0.50
2019-02-08T03:44:47.236Z,0.50
2019-02-08T03:49:50.625Z,0.50
2019-02-08T03:54:54.035Z,0.50
2019-02-08T03:59:57.415Z,0.60
2019-02-08T04:05:00.862Z,0.60
2019-02-08T04:10:07.667Z,0.60
2019-02-08T04:15:14.575Z,0.60
2019-02-08T04:20:21.536Z,0.60
2019-02-08T04:25:25.766Z,0.60
2019-02-08T04:30:32.331Z,0.60
2019-02-08T04:35:35.715Z,0.60
2019-02-08T04:40:39.099Z,0.60
2019-02-08T04:45:42.484Z,0.60
2019-02-08T04:50:45.867Z,0.60
2019-02-08T04:55:49.268Z,0.60
2019-02-08T05:00:52.664Z,0.60
2019-02-08T05:05:56.046Z,0.60
2019-02-08T05:10:59.643Z,0.60
2019-02-08T05:16:03.027Z,0.60
2019-02-08T05:21:06.412Z,0.60
2019-02-08T05:26:09.808Z,0.60
2019-02-08T05:31:13.206Z,0.60
2019-02-08T05:36:16.583Z,0.60
2019-02-08T05:41:19.985Z,0.60
2019-02-08T05:46:23.376Z,0.60
2019-02-08T05:51:26.760Z,0.60
2019-02-08T05:56:30.140Z,0.60
2019-02-08T06:01:33.519Z,0.60
2019-02-08T06:06:36.904Z,0.60
2019-02-08T06:11:40.303Z,0.60
2019-02-08T06:16:43.677Z,0.60
2019-02-08T06:21:47.067Z,0.60
2019-02-08T06:26:50.455Z,0.60
2019-02-08T06:31:53.851Z,0.60
2019-02-08T06:36:58.441Z,0.60
2019-02-08T06:42:01.826Z,0.50
2019-02-08T06:47:05.210Z,0.50
2019-02-08T06:52:08.599Z,0.50
2019-02-08T06:57:16.568Z,0.50
2019-02-08T07:02:21.599Z,0.50
2019-02-08T07:07:29.652Z,0.50
2019-02-08T07:12:34.742Z,0.50
2019-02-08T07:17:45.571Z,0.50
2019-02-08T07:23:02.692Z,0.50
2019-02-08T07:28:07.725Z,0.60
2019-02-08T07:33:18.702Z,0.60
2019-02-08T07:38:26.286Z,0.60
2019-02-08T07:43:49.811Z,0.60
2019-02-08T07:48:57.879Z,0.60
2019-02-08T07:54:15.314Z,0.70
2019-02-08T07:59:20.471Z,0.70
2019-02-08T08:04:29.323Z,0.70
2019-02-08T08:09:37.377Z,0.80
2019-02-08T08:14:45.351Z,0.90
2019-02-08T08:19:57.359Z,1.00
2019-02-08T08:25:20.718Z,1.00
2019-02-08T08:30:28.494Z,1.10
2019-02-08T08:35:37.528Z,1.20
2019-02-08T08:40:53.183Z,1.20
2019-02-08T08:46:05.695Z,1.30
2019-02-08T08:51:37.619Z,1.30
2019-02-08T08:57:05.006Z,1.30
2019-02-08T09:02:12.787Z,1.40
2019-02-08T09:07:38.324Z,1.50
2019-02-08T09:12:59.778Z,1.60
2019-02-08T09:18:34.454Z,1.70
2019-02-08T09:23:43.537Z,1.80
2019-02-08T09:28:59.049Z,1.90
2019-02-08T09:34:23.583Z,2.10
2019-02-08T09:39:41.883Z,2.20
2019-02-08T09:45:12.175Z,2.40
2019-02-08T09:50:35.164Z,2.60
2019-02-08T09:56:03.859Z,2.80
2019-02-08T10:01:44.779Z,3.00
2019-02-08T10:07:16.687Z,3.20
2019-02-08T10:12:51.867Z,3.50
2019-02-08T10:18:19.297Z,3.70
2019-02-08T10:23:40.993Z,3.90
2019-02-08T10:29:21.008Z,4.10
2019-02-08T10:34:56.251Z,4.30
2019-02-08T10:40:25.572Z,4.50
2019-02-08T10:46:07.052Z,4.60
2019-02-08T10:51:47.043Z,4.80
2019-02-08T10:57:05.263Z,5.00
2019-02-08T11:02:28.054Z,5.30
2019-02-08T11:07:56.714Z,5.50
2019-02-08T11:13:05.842Z,5.70
2019-02-08T11:18:45.054Z,5.80
2019-02-08T11:23:48.457Z,6.00
2019-02-08T11:28:51.839Z,6.00
2019-02-08T11:33:55.227Z,6.20
2019-02-08T11:38:58.611Z,6.30
2019-02-08T11:44:01.992Z,6.30
2019-02-08T11:49:05.926Z,6.30
2019-02-08T11:54:09.466Z,6.30
2019-02-08T11:59:12.851Z,6.40
2019-02-08T12:04:16.296Z,6.40
2019-02-08T12:09:19.689Z,6.50
2019-02-08T12:14:23.081Z,6.50
2019-02-08T12:19:26.475Z,6.50
2019-02-08T12:24:29.847Z,6.60
2019-02-08T12:29:33.239Z,6.60
2019-02-08T12:34:36.622Z,6.60
2019-02-08T12:39:40.008Z,6.70
2019-02-08T12:44:43.387Z,6.80
2019-02-08T12:49:46.771Z,6.80
2019-02-08T12:54:50.168Z,6.90
2019-02-08T12:59:53.550Z,7.00
2019-02-08T13:04:56.931Z,7.00
2019-02-08T13:10:00.309Z,7.00
2019-02-08T13:15:05.059Z,7.10
2019-02-08T13:20:17.328Z,7.10
2019-02-08T13:25:20.773Z,7.10
2019-02-08T13:30:26.703Z,7.10
2019-02-08T13:35:30.237Z,7.20
2019-02-08T13:40:33.622Z,7.20
2019-02-08T13:45:37.073Z,7.20
2019-02-08T13:50:40.524Z,7.10
2019-02-08T13:55:43.903Z,7.10
2019-02-08T14:00:47.287Z,7.10
2019-02-08T14:05:50.670Z,7.00
2019-02-08T14:10:54.046Z,7.00
2019-02-08T14:15:57.438Z,6.90
2019-02-08T14:21:00.818Z,6.80
2019-02-08T14:26:04.336Z,6.70
2019-02-08T14:31:07.733Z,6.70
2019-02-08T14:36:11.123Z,6.60
2019-02-08T14:41:14.515Z,6.60
2019-02-08T14:46:17.975Z,6.50
2019-02-08T14:51:21.359Z,6.40
2019-02-08T14:56:24.752Z,6.30
2019-02-08T15:01:28.135Z,6.20
2019-02-08T15:06:31.532Z,6.10
2019-02-08T15:11:34.927Z,6.00
2019-02-08T15:16:38.323Z,5.80
2019-02-08T15:21:41.707Z,5.70
2019-02-08T15:26:45.093Z,5.50
2019-02-08T15:31:48.572Z,5.40
2019-02-08T15:36:51.964Z,5.20
2019-02-08T15:41:55.359Z,5.10
2019-02-08T15:46:58.777Z,5.00
2019-02-08T15:52:02.224Z,4.90
2019-02-08T15:57:05.614Z,4.80
2019-02-08T16:02:09.071Z,4.70
2019-02-08T16:07:12.464Z,4.60
2019-02-08T16:12:15.847Z,4.50
2019-02-08T16:17:19.237Z,4.40
2019-02-08T16:22:22.647Z,4.30
2019-02-08T16:27:26.018Z,4.20
2019-02-08T16:32:29.405Z,4.00
2019-02-08T16:37:32.784Z,3.90
2019-02-08T16:42:36.183Z,3.80
2019-02-08T16:47:39.551Z,3.70
2019-02-08T16:52:42.949Z,3.60
2019-02-08T16:57:48.049Z,3.50
2019-02-08T17:02:51.731Z,3.50
2019-02-08T17:07:55.142Z,3.30
2019-02-08T17:12:58.996Z,3.20
2019-02-08T17:18:02.448Z,3.20
2019-02-08T17:23:06.015Z,3.10
2019-02-08T17:28:09.731Z,3.00
2019-02-08T17:33:13.175Z,2.90
2019-02-08T17:38:16.590Z,2.80
2019-02-08T17:43:20.251Z,2.70
2019-02-08T17:48:23.628Z,2.60
2019-02-08T17:53:27.015Z,2.60
2019-02-08T17:58:30.415Z,2.50
2019-02-08T18:03:33.795Z,2.40
2019-02-08T18:08:37.182Z,2.30
2019-02-08T18:13:40.564Z,2.30
2019-02-08T18:18:44.020Z,2.20
2019-02-08T18:23:47.400Z,2.10
2019-02-08T18:28:50.782Z,2.10
2019-02-08T18:33:54.170Z,2.00
2019-02-08T18:38:58.420Z,1.90
2019-02-08T18:44:01.807Z,1.90
2019-02-08T18:49:05.291Z,1.80
2019-02-08T18:54:08.675Z,1.80
2019-02-08T18:59:12.055Z,1.70
2019-02-08T19:04:15.458Z,1.60
2019-02-08T19:09:18.831Z,1.60
2019-02-08T19:14:22.216Z,1.50
2019-02-08T19:19:25.603Z,1.40
2019-02-08T19:24:28.987Z,1.40
2019-02-08T19:29:32.363Z,1.30
2019-02-08T19:34:35.734Z,1.30
2019-02-08T19:39:39.119Z,1.20
2019-02-08T19:44:42.503Z,1.20
2019-02-08T19:49:45.959Z,1.10
2019-02-08T19:54:49.339Z,1.10
2019-02-08T19:59:52.721Z,1.00
2019-02-08T20:04:56.115Z,1.00
2019-02-08T20:09:59.486Z,0.90
2019-02-08T20:15:02.879Z,0.90
2019-02-08T20:20:07.999Z,0.90
2019-02-08T20:25:17.009Z,0.90
2019-02-08T20:30:24.913Z,0.80
2019-02-08T20:35:28.832Z,0.80
2019-02-08T20:40:37.175Z,0.80
2019-02-08T20:45:40.643Z,0.70
2019-02-08T20:50:44.096Z,0.70
2019-02-08T20:55:47.496Z,0.60
2019-02-08T21:00:52.125Z,0.70
2019-02-08T21:05:55.571Z,0.60
2019-02-08T21:10:58.980Z,0.60
2019-02-08T21:16:02.404Z,0.60
2019-02-08T21:21:05.960Z,0.60
2019-02-08T21:26:09.427Z,0.60
2019-02-08T21:31:12.923Z,0.60
2019-02-08T21:36:16.307Z,0.50
2019-02-08T21:41:19.712Z,0.50
2019-02-08T21:46:23.091Z,0.50
2019-02-08T21:51:26.548Z,0.50
2019-02-08T21:56:29.946Z,0.50
2019-02-08T22:01:33.386Z,0.50
2019-02-08T22:06:36.837Z,0.50
2019-02-08T22:11:40.222Z,0.50
2019-02-08T22:16:43.599Z,0.40
2019-02-08T22:21:46.980Z,0.50
2019-02-08T22:26:50.359Z,0.50
2019-02-08T22:31:53.747Z,0.50
2019-02-08T22:36:57.135Z,0.40
2019-02-08T22:42:00.541Z,0.40
2019-02-08T22:47:03.979Z,0.40
2019-02-08T22:52:07.374Z,0.50
2019-02-08T22:57:10.760Z,0.40
2019-02-08T23:02:14.143Z,0.40
2019-02-08T23:07:17.592Z,0.40
2019-02-08T23:12:20.977Z,0.40
2019-02-08T23:17:24.361Z,0.40
2019-02-08T23:22:27.751Z,0.40
2019-02-08T23:27:31.127Z,0.40
2019-02-08T23:32:34.510Z,0.40
2019-02-08T23:37:37.887Z,0.40
2019-02-08T23:42:41.280Z,0.30
2019-02-08T23:47:44.719Z,0.30
2019-02-08T23:52:48.115Z,0.30
2019-02-08T23:57:51.487Z,0.30
